Time;durP1;ratioP1;P1;durP2;ratioP2;P2;SDS_P1;SDS_P2;PMS_P1;PMS_P2;Temp;Humidity;BMP_temperature;BMP_pressure;BME280_temperature;BME280_humidity;BME280_pressure;Samples;Min_cycle;Max_cycle;Signal;HPM_P1;HPM_P2
2023/06/18 00:01:52;;;;;;;10.07;6.10;;;;;;;;;;4954711;29;20039;-83
2023/06/18 00:04:18;;;;;;;8.52;5.93;;;;;;;;;;4967371;29;20031;-83
2023/06/18 00:06:43;;;;;;;9.50;5.82;;;;;;;;;;4964473;28;20078;-84
2023/06/18 00:09:09;;;;;;;7.90;5.80;;;;;;;;;;4965843;28;20063;-83
2023/06/18 00:11:34;;;;;;;9.80;5.75;;;;;;;;;;4978399;28;20050;-83
2023/06/18 00:14:00;;;;;;;10.00;5.95;;;;;;;;;;4958605;29;20058;-83
2023/06/18 00:16:25;;;;;;;9.23;5.78;;;;;;;;;;4956850;29;20047;-83
2023/06/18 00:18:51;;;;;;;8.18;5.88;;;;;;;;;;4953981;28;20091;-84
2023/06/18 00:21:16;;;;;;;9.30;6.43;;;;;;;;;;4951156;29;20181;-83
2023/06/18 00:23:42;;;;;;;10.18;6.28;;;;;;;;;;4951243;29;20082;-83
2023/06/18 00:26:07;;;;;;;9.07;6.05;;;;;;;;;;4954323;29;20039;-83
2023/06/18 00:28:33;;;;;;;8.85;6.00;;;;;;;;;;4961017;29;20062;-83
2023/06/18 00:30:59;;;;;;;9.88;6.13;;;;;;;;;;4958813;28;20043;-82
2023/06/18 00:33:24;;;;;;;9.45;6.45;;;;;;;;;;4957189;28;20568;-82
2023/06/18 00:35:56;;;;;;;11.02;6.20;;;;;;;;;;4954150;28;20028;-82
2023/06/18 00:38:28;;;;;;;11.50;6.40;;;;;;;;;;4951770;29;20036;-83
2023/06/18 00:40:54;;;;;;;8.18;6.13;;;;;;;;;;4970097;28;20095;-83
2023/06/18 00:43:20;;;;;;;8.63;6.20;;;;;;;;;;4954819;29;20035;-83
2023/06/18 00:45:46;;;;;;;9.02;6.07;;;;;;;;;;4956715;29;20067;-83
2023/06/18 00:48:13;;;;;;;8.45;6.10;;;;;;;;;;4960585;28;20035;-82
2023/06/18 00:50:40;;;;;;;7.72;6.13;;;;;;;;;;4966670;28;20051;-83
2023/06/18 00:53:07;;;;;;;9.23;6.22;;;;;;;;;;4947333;29;20043;-82
2023/06/18 00:55:37;;;;;;;8.93;6.05;;;;;;;;;;4963731;29;20059;-83
2023/06/18 00:58:06;;;;;;;9.98;6.40;;;;;;;;;;4980126;28;20069;-83
2023/06/18 01:00:34;;;;;;;9.20;6.57;;;;;;;;;;4961974;28;20077;-83
2023/06/18 01:03:16;;;;;;;13.82;6.53;;;;;;;;;;4966049;29;20039;-83
2023/06/18 01:06:02;;;;;;;10.25;6.13;;;;;;;;;;4971311;28;20042;-84
2023/06/18 01:08:33;;;;;;;9.00;6.30;;;;;;;;;;4941934;29;20413;-83
2023/06/18 01:11:06;;;;;;;9.07;6.50;;;;;;;;;;4942327;29;20046;-84
2023/06/18 01:13:36;;;;;;;9.65;6.63;;;;;;;;;;4958131;28;20036;-83
2023/06/18 01:16:05;;;;;;;10.35;6.30;;;;;;;;;;4946053;29;20035;-83
2023/06/18 01:18:50;;;;;;;10.90;6.15;;;;;;;;;;4947616;28;20028;-86
2023/06/18 01:21:19;;;;;;;11.50;6.47;;;;;;;;;;4950866;29;20028;-83
2023/06/18 01:24:08;;;;;;;11.15;6.68;;;;;;;;;;4957385;29;20105;-83
2023/06/18 01:26:35;;;;;;;9.98;6.68;;;;;;;;;;4955753;28;20163;-84
2023/06/18 01:29:01;;;;;;;10.15;6.10;;;;;;;;;;4946813;28;20035;-84
2023/06/18 01:31:34;;;;;;;11.18;6.85;;;;;;;;;;4946116;29;20086;-83
2023/06/18 01:34:01;;;;;;;10.75;5.88;;;;;;;;;;4948066;29;20035;-83
2023/06/18 01:36:30;;;;;;;10.65;6.57;;;;;;;;;;4950396;29;20485;-82
2023/06/18 01:39:07;;;;;;;8.63;6.22;;;;;;;;;;4948808;29;20074;-82
2023/06/18 01:41:36;;;;;;;9.48;6.50;;;;;;;;;;4957886;28;20067;-83
2023/06/18 01:44:06;;;;;;;9.38;6.28;;;;;;;;;;4950478;29;20508;-83
2023/06/18 01:46:32;;;;;;;12.05;6.50;;;;;;;;;;4972326;28;20039;-82
2023/06/18 01:49:02;;;;;;;9.30;6.45;;;;;;;;;;4957122;29;20555;-84
2023/06/18 01:51:30;;;;;;;13.10;6.85;;;;;;;;;;4950912;29;20031;-81
2023/06/18 01:53:57;;;;;;;10.48;7.03;;;;;;;;;;4952408;28;20375;-82
2023/06/18 01:56:23;;;;;;;10.45;6.57;;;;;;;;;;4955303;28;20094;-83
2023/06/18 01:58:50;;;;;;;9.95;6.68;;;;;;;;;;4968625;28;20405;-83
2023/06/18 02:01:15;;;;;;;11.77;7.20;;;;;;;;;;4951704;29;20250;-83
2023/06/18 02:03:41;;;;;;;9.45;6.80;;;;;;;;;;4962265;28;20575;-83
2023/06/18 02:06:07;;;;;;;11.18;7.15;;;;;;;;;;4931243;29;20019;-82
2023/06/18 02:08:33;;;;;;;11.18;7.18;;;;;;;;;;4956180;29;20094;-82
2023/06/18 02:10:59;;;;;;;9.48;6.65;;;;;;;;;;4965148;28;20039;-82
2023/06/18 02:13:25;;;;;;;11.73;6.97;;;;;;;;;;4949969;29;20028;-82
2023/06/18 02:15:50;;;;;;;8.95;6.90;;;;;;;;;;4958364;29;20106;-84
2023/06/18 02:18:16;;;;;;;10.15;7.15;;;;;;;;;;4949757;28;20039;-81
2023/06/18 02:20:42;;;;;;;12.77;6.88;;;;;;;;;;4948741;28;20039;-82
2023/06/18 02:23:08;;;;;;;14.63;7.05;;;;;;;;;;4963832;28;20038;-83
2023/06/18 02:25:34;;;;;;;11.07;7.53;;;;;;;;;;4949244;29;20035;-83
2023/06/18 02:28:00;;;;;;;11.52;7.32;;;;;;;;;;4949989;28;20046;-82
2023/06/18 02:30:30;;;;;;;11.10;7.30;;;;;;;;;;4948872;28;20042;-82
2023/06/18 02:33:01;;;;;;;10.93;7.63;;;;;;;;;;4955571;29;20045;-83
2023/06/18 02:35:27;;;;;;;10.77;7.25;;;;;;;;;;4969601;28;20043;-83
2023/06/18 02:37:54;;;;;;;9.73;7.30;;;;;;;;;;4954645;29;20091;-83
2023/06/18 02:40:19;;;;;;;10.25;7.18;;;;;;;;;;4963745;28;20066;-82
2023/06/18 02:42:48;;;;;;;10.63;7.00;;;;;;;;;;4963226;28;20044;-82
2023/06/18 02:45:18;;;;;;;10.15;6.35;;;;;;;;;;4945860;29;20060;-83
2023/06/18 02:47:44;;;;;;;9.52;6.90;;;;;;;;;;4959264;28;20489;-82
2023/06/18 02:50:11;;;;;;;9.45;6.88;;;;;;;;;;4953980;28;20505;-81
2023/06/18 02:52:39;;;;;;;12.73;7.50;;;;;;;;;;4954664;29;20039;-83
2023/06/18 02:55:07;;;;;;;9.20;6.93;;;;;;;;;;4964086;28;20039;-82
2023/06/18 02:57:34;;;;;;;9.80;7.18;;;;;;;;;;4946588;29;20035;-83
2023/06/18 02:59:59;;;;;;;10.30;7.13;;;;;;;;;;4955570;28;20042;-81
2023/06/18 03:02:25;;;;;;;12.38;7.50;;;;;;;;;;4950212;29;20035;-83
2023/06/18 03:04:50;;;;;;;11.63;7.22;;;;;;;;;;4953707;29;20035;-83
2023/06/18 03:07:16;;;;;;;10.65;7.35;;;;;;;;;;4938939;29;20039;-82
2023/06/18 03:09:42;;;;;;;11.32;7.28;;;;;;;;;;4948271;28;20064;-83
2023/06/18 03:12:08;;;;;;;11.88;7.45;;;;;;;;;;4946540;29;20039;-84
2023/06/18 03:14:34;;;;;;;10.35;7.13;;;;;;;;;;4963406;28;20055;-83
2023/06/18 03:16:59;;;;;;;10.18;6.95;;;;;;;;;;4964778;28;20528;-80
2023/06/18 03:19:28;;;;;;;10.30;7.30;;;;;;;;;;4950609;28;20430;-79
2023/06/18 03:21:54;;;;;;;10.50;7.28;;;;;;;;;;4949358;28;20477;-81
2023/06/18 03:24:20;;;;;;;10.07;7.15;;;;;;;;;;4953133;29;20477;-83
2023/06/18 03:26:46;;;;;;;9.88;7.22;;;;;;;;;;4941613;28;20035;-84
2023/06/18 03:29:12;;;;;;;12.75;7.15;;;;;;;;;;4944449;29;20150;-82
2023/06/18 03:31:41;;;;;;;9.55;7.10;;;;;;;;;;4947835;28;20103;-86
2023/06/18 03:34:08;;;;;;;14.77;7.60;;;;;;;;;;4942253;29;20031;-83
2023/06/18 03:36:41;;;;;;;9.90;7.10;;;;;;;;;;4957071;28;20034;-80
2023/06/18 03:39:11;;;;;;;15.38;7.75;;;;;;;;;;4951883;29;20493;-80
2023/06/18 03:41:38;;;;;;;10.50;7.38;;;;;;;;;;4946033;28;20666;-80
2023/06/18 03:44:03;;;;;;;11.65;7.75;;;;;;;;;;4951532;29;20075;-80
2023/06/18 03:46:31;;;;;;;11.82;7.13;;;;;;;;;;4952196;28;20031;-80
2023/06/18 03:48:58;;;;;;;11.27;7.30;;;;;;;;;;4955451;28;20034;-80
2023/06/18 03:51:25;;;;;;;15.85;8.18;;;;;;;;;;4941196;29;20149;-83
2023/06/18 03:53:51;;;;;;;11.65;7.32;;;;;;;;;;4946728;28;20024;-83
2023/06/18 03:56:18;;;;;;;10.20;7.45;;;;;;;;;;4942059;29;20043;-85
2023/06/18 03:58:44;;;;;;;11.85;6.97;;;;;;;;;;4943381;28;20031;-84
2023/06/18 04:01:10;;;;;;;16.10;7.63;;;;;;;;;;4946404;29;20124;-80
2023/06/18 04:03:37;;;;;;;12.00;7.25;;;;;;;;;;4938938;29;20142;-81
2023/06/18 04:06:02;;;;;;;9.65;6.82;;;;;;;;;;4944002;29;20028;-80
2023/06/18 04:08:28;;;;;;;10.77;7.60;;;;;;;;;;4948979;28;20091;-81
2023/06/18 04:10:55;;;;;;;9.52;7.20;;;;;;;;;;4954260;28;20032;-82
2023/06/18 04:13:20;;;;;;;11.95;7.88;;;;;;;;;;4965438;28;20027;-83
2023/06/18 04:15:46;;;;;;;10.70;7.13;;;;;;;;;;4952261;29;20120;-81
2023/06/18 04:18:14;;;;;;;10.27;6.97;;;;;;;;;;4950210;29;20357;-82
2023/06/18 04:20:39;;;;;;;11.20;7.35;;;;;;;;;;4960176;28;20503;-82
2023/06/18 04:23:06;;;;;;;10.35;7.38;;;;;;;;;;4961417;28;20493;-82
2023/06/18 04:25:32;;;;;;;10.98;6.90;;;;;;;;;;4947549;29;20079;-81
2023/06/18 04:27:58;;;;;;;10.82;7.47;;;;;;;;;;4946884;29;20034;-82
2023/06/18 04:30:24;;;;;;;12.10;7.22;;;;;;;;;;4966869;28;20484;-82
2023/06/18 04:32:52;;;;;;;10.70;7.82;;;;;;;;;;4964202;28;20035;-83
2023/06/18 04:35:19;;;;;;;9.07;6.55;;;;;;;;;;4955707;29;20118;-83
2023/06/18 04:37:45;;;;;;;11.07;7.32;;;;;;;;;;4948227;29;20031;-81
2023/06/18 04:40:11;;;;;;;11.55;6.88;;;;;;;;;;4961148;28;20039;-83
2023/06/18 04:42:38;;;;;;;9.85;6.97;;;;;;;;;;4948454;29;20038;-83
2023/06/18 04:45:09;;;;;;;14.02;7.40;;;;;;;;;;4958472;28;20044;-83
2023/06/18 04:47:34;;;;;;;10.43;6.95;;;;;;;;;;4949522;29;20383;-84
2023/06/18 04:50:02;;;;;;;11.50;7.00;;;;;;;;;;4944091;28;20066;-84
2023/06/18 04:52:28;;;;;;;13.43;7.30;;;;;;;;;;4943713;29;20035;-82
2023/06/18 04:54:54;;;;;;;12.85;7.00;;;;;;;;;;4968559;28;20098;-83
2023/06/18 04:57:22;;;;;;;11.20;7.07;;;;;;;;;;4952339;29;20027;-83
2023/06/18 04:59:47;;;;;;;9.13;6.70;;;;;;;;;;4950440;28;20032;-82
2023/06/18 05:02:14;;;;;;;9.95;6.53;;;;;;;;;;4941558;29;20070;-83
2023/06/18 05:04:41;;;;;;;11.50;6.78;;;;;;;;;;4968963;28;20032;-83
2023/06/18 05:07:06;;;;;;;10.32;6.93;;;;;;;;;;4951999;29;20206;-83
2023/06/18 05:09:34;;;;;;;14.07;6.97;;;;;;;;;;4954192;28;20047;-82
2023/06/18 05:12:00;;;;;;;9.13;6.68;;;;;;;;;;4953869;29;20027;-82
2023/06/18 05:14:27;;;;;;;13.90;6.95;;;;;;;;;;4956156;29;20055;-82
2023/06/18 05:16:53;;;;;;;10.15;7.03;;;;;;;;;;4947693;28;20042;-82
2023/06/18 05:19:19;;;;;;;10.32;7.10;;;;;;;;;;4963590;28;20380;-82
2023/06/18 05:21:44;;;;;;;8.93;6.60;;;;;;;;;;4963888;28;20043;-80
2023/06/18 05:24:10;;;;;;;10.40;7.05;;;;;;;;;;4964050;28;20405;-80
2023/06/18 05:26:36;;;;;;;9.38;7.00;;;;;;;;;;4956378;28;20054;-84
2023/06/18 05:29:02;;;;;;;11.23;6.97;;;;;;;;;;4951764;29;20066;-83
2023/06/18 05:31:30;;;;;;;11.20;6.70;;;;;;;;;;4956022;29;20057;-83
2023/06/18 05:33:59;;;;;;;9.57;6.60;;;;;;;;;;4955666;29;20038;-82
2023/06/18 05:36:25;;;;;;;12.25;6.60;;;;;;;;;;4963665;28;20130;-81
2023/06/18 05:38:52;;;;;;;12.05;7.22;;;;;;;;;;4950265;28;20110;-81
2023/06/18 05:41:18;;;;;;;11.02;6.82;;;;;;;;;;4950677;29;20043;-83
2023/06/18 05:43:44;;;;;;;10.57;6.90;;;;;;;;;;4952630;29;20035;-82
2023/06/18 05:46:10;;;;;;;7.97;6.03;;;;;;;;;;4968556;28;20122;-87
2023/06/18 05:48:35;;;;;;;12.80;6.70;;;;;;;;;;4963220;28;20074;-82
2023/06/18 05:51:21;;;;;;;9.45;6.30;;;;;;;;;;4950779;28;20047;-83
2023/06/18 05:53:47;;;;;;;8.68;6.57;;;;;;;;;;4964310;28;20035;-83
2023/06/18 05:56:14;;;;;;;9.00;6.70;;;;;;;;;;4950644;29;20509;-84
2023/06/18 05:58:41;;;;;;;11.00;6.57;;;;;;;;;;4954332;29;20046;-84
2023/06/18 06:01:06;;;;;;;8.82;6.72;;;;;;;;;;4952274;28;20102;-81
2023/06/18 06:03:35;;;;;;;11.40;6.25;;;;;;;;;;4962966;28;20524;-80
2023/06/18 06:06:02;;;;;;;9.27;6.30;;;;;;;;;;4959787;28;20043;-83
2023/06/18 06:08:29;;;;;;;15.60;6.65;;;;;;;;;;4955570;28;20118;-82
2023/06/18 06:10:57;;;;;;;16.80;6.53;;;;;;;;;;4969292;28;20060;-83
2023/06/18 06:13:22;;;;;;;11.77;6.85;;;;;;;;;;4949264;29;20082;-82
2023/06/18 06:15:53;;;;;;;9.93;6.90;;;;;;;;;;4950088;29;20381;-83
2023/06/18 06:18:18;;;;;;;9.95;6.70;;;;;;;;;;4946704;29;20083;-83
2023/06/18 06:20:45;;;;;;;9.32;6.50;;;;;;;;;;4961711;28;20036;-86
2023/06/18 06:23:10;;;;;;;10.45;6.53;;;;;;;;;;4954536;28;20038;-83
2023/06/18 06:25:36;;;;;;;8.05;6.07;;;;;;;;;;4954409;29;20043;-84
2023/06/18 06:28:02;;;;;;;11.10;6.60;;;;;;;;;;4962921;28;20043;-83
2023/06/18 06:30:28;;;;;;;8.60;6.50;;;;;;;;;;4939070;29;20061;-84
2023/06/18 06:32:59;;;;;;;10.60;6.30;;;;;;;;;;4953646;29;20039;-82
2023/06/18 06:35:27;;;;;;;10.30;6.22;;;;;;;;;;4951803;29;20646;-84
2023/06/18 06:37:53;;;;;;;9.23;6.13;;;;;;;;;;4962293;28;20038;-84
2023/06/18 06:40:18;;;;;;;8.43;6.18;;;;;;;;;;4951533;28;20039;-82
2023/06/18 06:42:44;;;;;;;11.73;6.22;;;;;;;;;;4939829;29;20123;-83
2023/06/18 06:45:27;;;;;;;9.10;6.40;;;;;;;;;;4940193;29;20051;-83
2023/06/18 06:48:17;;;;;;;10.43;6.65;;;;;;;;;;4956514;28;20062;-82
2023/06/18 06:51:07;;;;;;;9.05;6.38;;;;;;;;;;4953042;29;20043;-82
2023/06/18 06:53:35;;;;;;;7.88;5.90;;;;;;;;;;4961135;28;20079;-81
2023/06/18 06:56:01;;;;;;;8.30;6.30;;;;;;;;;;4948748;29;20067;-82
2023/06/18 06:58:28;;;;;;;9.50;6.40;;;;;;;;;;4967415;28;20038;-85
2023/06/18 07:00:53;;;;;;;9.20;6.43;;;;;;;;;;4944829;28;20038;-83
2023/06/18 07:03:19;;;;;;;8.23;6.32;;;;;;;;;;4939962;28;20130;-82
2023/06/18 07:05:44;;;;;;;8.00;6.10;;;;;;;;;;4945380;29;20039;-81
2023/06/18 07:08:10;;;;;;;7.75;6.43;;;;;;;;;;4943345;29;20079;-81
2023/06/18 07:10:36;;;;;;;9.35;6.28;;;;;;;;;;4947348;28;20046;-86
2023/06/18 07:13:02;;;;;;;13.02;6.18;;;;;;;;;;4949320;29;20039;-83
2023/06/18 07:15:27;;;;;;;8.55;6.10;;;;;;;;;;4953209;28;20051;-81
2023/06/18 07:17:53;;;;;;;12.00;6.00;;;;;;;;;;4947562;28;20028;-83
2023/06/18 07:20:18;;;;;;;10.43;6.45;;;;;;;;;;4936978;29;20418;-84
2023/06/18 07:22:44;;;;;;;8.05;6.45;;;;;;;;;;4941628;29;20114;-80
2023/06/18 07:25:09;;;;;;;8.23;6.25;;;;;;;;;;4944804;29;20100;-82
2023/06/18 07:27:35;;;;;;;10.05;6.20;;;;;;;;;;4952620;29;20035;-80
2023/06/18 07:30:01;;;;;;;8.32;6.18;;;;;;;;;;4951994;28;20043;-83
2023/06/18 07:32:26;;;;;;;8.30;5.90;;;;;;;;;;4953177;28;20082;-85
2023/06/18 07:34:52;;;;;;;7.78;6.03;;;;;;;;;;4950541;28;20081;-82
2023/06/18 07:37:17;;;;;;;7.82;5.85;;;;;;;;;;4951674;28;20078;-82
2023/06/18 07:39:43;;;;;;;10.63;6.00;;;;;;;;;;4949564;28;20513;-82
2023/06/18 07:42:08;;;;;;;10.30;6.05;;;;;;;;;;4945998;28;20039;-82
2023/06/18 07:44:34;;;;;;;11.20;5.93;;;;;;;;;;4942427;29;20413;-82
2023/06/18 07:46:59;;;;;;;6.90;5.43;;;;;;;;;;4951316;29;20050;-82
2023/06/18 07:49:25;;;;;;;7.47;5.80;;;;;;;;;;4937485;29;20446;-82
2023/06/18 07:51:50;;;;;;;8.52;5.97;;;;;;;;;;4952632;28;20081;-81
2023/06/18 07:54:16;;;;;;;8.25;5.80;;;;;;;;;;4942113;29;20035;-82
2023/06/18 07:56:41;;;;;;;9.95;5.53;;;;;;;;;;4942894;29;20035;-83
2023/06/18 07:59:07;;;;;;;6.93;5.50;;;;;;;;;;4964337;23;20040;-86
2023/06/18 08:01:33;;;;;;;9.63;5.88;;;;;;;;;;4925168;29;20454;-88
2023/06/18 08:03:59;;;;;;;9.75;5.65;;;;;;;;;;4947314;29;20036;-87
2023/06/18 08:06:24;;;;;;;6.50;5.40;;;;;;;;;;4931717;29;20051;-85
2023/06/18 08:08:50;;;;;;;7.25;5.60;;;;;;;;;;4934961;28;20052;-85
2023/06/18 08:11:17;;;;;;;7.60;5.28;;;;;;;;;;4932740;29;20040;-87
2023/06/18 08:13:42;;;;;;;8.82;5.38;;;;;;;;;;4931291;29;20039;-86
2023/06/18 08:16:08;;;;;;;9.35;5.53;;;;;;;;;;4927806;29;20048;-87
2023/06/18 08:18:34;;;;;;;8.10;6.20;;;;;;;;;;4926514;29;20032;-87
2023/06/18 08:21:00;;;;;;;7.88;5.22;;;;;;;;;;4936688;29;20130;-86
2023/06/18 08:23:26;;;;;;;9.88;5.32;;;;;;;;;;4932372;29;20150;-86
2023/06/18 08:25:51;;;;;;;8.57;5.72;;;;;;;;;;4934457;29;20125;-85
2023/06/18 08:28:17;;;;;;;9.05;5.35;;;;;;;;;;4926554;29;20079;-85
2023/06/18 08:30:43;;;;;;;6.75;5.55;;;;;;;;;;4930624;29;20091;-86
2023/06/18 08:33:10;;;;;;;8.77;6.25;;;;;;;;;;4931665;29;20024;-85
2023/06/18 08:35:37;;;;;;;6.75;5.38;;;;;;;;;;4941556;29;20032;-86
2023/06/18 08:38:05;;;;;;;7.95;5.80;;;;;;;;;;4938703;29;20092;-88
2023/06/18 08:40:37;;;;;;;8.80;5.60;;;;;;;;;;4924730;29;20103;-89
2023/06/18 08:43:04;;;;;;;8.10;5.57;;;;;;;;;;4927064;29;20086;-88
2023/06/18 08:45:30;;;;;;;9.50;5.63;;;;;;;;;;4929265;29;20082;-87
2023/06/18 08:47:59;;;;;;;8.45;5.80;;;;;;;;;;4935968;29;20035;-89
2023/06/18 08:50:28;;;;;;;8.30;5.43;;;;;;;;;;4932974;29;20036;-85
2023/06/18 08:52:59;;;;;;;11.98;5.22;;;;;;;;;;4922250;29;20032;-85
2023/06/18 08:55:27;;;;;;;10.38;5.07;;;;;;;;;;4952821;28;20505;-86
2023/06/18 08:58:04;;;;;;;8.45;5.38;;;;;;;;;;4939243;29;20039;-88
2023/06/18 09:00:30;;;;;;;7.70;5.47;;;;;;;;;;4935811;29;20135;-87
2023/06/18 09:02:56;;;;;;;7.88;5.45;;;;;;;;;;4932074;29;20074;-88
2023/06/18 09:05:22;;;;;;;6.30;5.32;;;;;;;;;;4929591;29;20067;-87
2023/06/18 09:07:48;;;;;;;6.88;5.20;;;;;;;;;;4928605;29;20536;-87
2023/06/18 09:10:14;;;;;;;9.88;5.75;;;;;;;;;;4938343;29;20127;-85
2023/06/18 09:12:40;;;;;;;8.13;5.53;;;;;;;;;;4945549;29;20138;-86
2023/06/18 09:15:06;;;;;;;8.27;5.68;;;;;;;;;;4937070;29;20035;-84
2023/06/18 09:17:33;;;;;;;9.05;5.63;;;;;;;;;;4933381;29;20051;-86
2023/06/18 09:19:58;;;;;;;9.50;5.68;;;;;;;;;;4929392;29;20531;-86
2023/06/18 09:22:24;;;;;;;8.35;5.32;;;;;;;;;;4932339;29;20040;-87
2023/06/18 09:24:58;;;;;;;8.00;5.55;;;;;;;;;;4947385;29;20091;-86
2023/06/18 09:27:34;;;;;;;6.90;5.97;;;;;;;;;;4938066;29;20119;-85
2023/06/18 09:30:00;;;;;;;11.85;5.75;;;;;;;;;;4950302;29;20051;-86
2023/06/18 09:32:26;;;;;;;7.13;5.40;;;;;;;;;;4938100;29;20099;-86
2023/06/18 09:34:52;;;;;;;9.73;5.93;;;;;;;;;;4932824;29;20036;-86
2023/06/18 09:37:19;;;;;;;9.15;5.60;;;;;;;;;;4931453;29;20111;-87
2023/06/18 09:39:45;;;;;;;8.70;5.35;;;;;;;;;;4936558;29;20059;-89
2023/06/18 09:42:11;;;;;;;10.50;5.25;;;;;;;;;;4928215;29;20031;-84
2023/06/18 09:44:37;;;;;;;10.23;5.50;;;;;;;;;;4919838;29;20107;-87
2023/06/18 09:47:10;;;;;;;6.63;5.32;;;;;;;;;;4934504;29;20040;-84
2023/06/18 09:49:37;;;;;;;6.93;5.32;;;;;;;;;;4936394;29;20123;-85
2023/06/18 09:52:05;;;;;;;8.13;5.57;;;;;;;;;;4926200;29;20035;-88
2023/06/18 09:54:40;;;;;;;9.05;5.70;;;;;;;;;;4927567;29;20036;-86
2023/06/18 09:57:06;;;;;;;7.18;5.22;;;;;;;;;;4932038;29;20032;-86
2023/06/18 09:59:32;;;;;;;7.43;5.40;;;;;;;;;;4935305;28;20043;-86
2023/06/18 10:01:57;;;;;;;9.95;6.05;;;;;;;;;;4933902;29;20130;-86
2023/06/18 10:04:25;;;;;;;8.10;5.18;;;;;;;;;;4934012;29;20046;-86
2023/06/18 10:06:56;;;;;;;11.45;5.43;;;;;;;;;;4947771;29;20044;-87
2023/06/18 10:09:23;;;;;;;9.77;5.30;;;;;;;;;;4936386;29;20048;-86
2023/06/18 10:11:50;;;;;;;7.75;5.10;;;;;;;;;;4926087;29;20040;-87
2023/06/18 10:14:22;;;;;;;6.65;5.07;;;;;;;;;;4934317;29;20492;-86
2023/06/18 10:16:51;;;;;;;7.40;5.25;;;;;;;;;;4948754;29;20042;-86
2023/06/18 10:19:30;;;;;;;5.47;4.80;;;;;;;;;;4933838;29;20040;-86
2023/06/18 10:22:03;;;;;;;8.32;5.57;;;;;;;;;;4934172;29;20035;-87
2023/06/18 10:24:37;;;;;;;7.22;5.28;;;;;;;;;;4931249;29;20513;-86
2023/06/18 10:27:05;;;;;;;6.97;4.75;;;;;;;;;;4929510;29;20039;-87
2023/06/18 10:29:32;;;;;;;7.50;5.30;;;;;;;;;;4932604;29;20047;-87
2023/06/18 10:31:58;;;;;;;6.95;5.32;;;;;;;;;;4936293;29;20074;-87
2023/06/18 10:34:24;;;;;;;10.65;5.43;;;;;;;;;;4934317;29;20028;-85
2023/06/18 10:36:50;;;;;;;13.25;5.15;;;;;;;;;;4937359;29;20516;-87
2023/06/18 10:39:16;;;;;;;8.57;5.40;;;;;;;;;;4934559;29;20095;-86
2023/06/18 10:41:47;;;;;;;11.65;5.07;;;;;;;;;;4930165;28;20445;-85
2023/06/18 10:44:13;;;;;;;8.25;5.03;;;;;;;;;;4926163;29;20046;-86
2023/06/18 10:46:39;;;;;;;6.88;5.32;;;;;;;;;;4923574;29;20405;-87
2023/06/18 10:49:20;;;;;;;6.38;5.30;;;;;;;;;;4921309;29;20125;-85
2023/06/18 10:51:57;;;;;;;6.75;5.13;;;;;;;;;;4934533;29;20490;-87
2023/06/18 10:54:30;;;;;;;7.20;5.20;;;;;;;;;;4922337;29;20032;-87
2023/06/18 10:56:57;;;;;;;7.57;5.43;;;;;;;;;;4928790;29;20047;-84
2023/06/18 10:59:58;;;;;;;6.72;5.03;;;;;;;;;;4940474;28;20302;-86
2023/06/18 11:02:32;;;;;;;7.00;5.35;;;;;;;;;;4943366;28;20079;-87
2023/06/18 11:04:58;;;;;;;11.38;5.20;;;;;;;;;;4919840;29;20039;-85
2023/06/18 11:07:25;;;;;;;7.28;5.18;;;;;;;;;;4917654;29;20550;-86
2023/06/18 11:09:59;;;;;;;7.70;5.25;;;;;;;;;;4932593;29;20054;-87
2023/06/18 11:12:24;;;;;;;10.10;5.50;;;;;;;;;;4923259;29;20036;-87
2023/06/18 11:15:19;;;;;;;8.75;5.30;;;;;;;;;;4940323;29;20110;-88
2023/06/18 11:17:53;;;;;;;7.80;5.03;;;;;;;;;;4922232;29;20036;-88
2023/06/18 11:20:20;;;;;;;6.10;5.00;;;;;;;;;;4937209;28;20085;-87
2023/06/18 11:22:47;;;;;;;10.10;4.97;;;;;;;;;;4938482;28;20123;-85
2023/06/18 11:25:14;;;;;;;7.95;5.10;;;;;;;;;;4925138;29;20044;-86
2023/06/18 11:27:42;;;;;;;8.82;5.15;;;;;;;;;;4935446;29;20036;-88
2023/06/18 11:30:13;;;;;;;7.90;5.18;;;;;;;;;;4930635;29;20570;-86
2023/06/18 11:32:40;;;;;;;10.35;5.63;;;;;;;;;;4942666;29;20118;-86
2023/06/18 11:35:10;;;;;;;8.77;5.25;;;;;;;;;;4926360;29;20071;-86
2023/06/18 11:37:38;;;;;;;7.75;5.45;;;;;;;;;;4945157;29;20043;-88
2023/06/18 11:40:07;;;;;;;9.93;5.22;;;;;;;;;;4930999;29;20126;-88
2023/06/18 11:42:34;;;;;;;5.60;5.00;;;;;;;;;;4922502;29;20527;-86
2023/06/18 11:45:02;;;;;;;8.20;5.38;;;;;;;;;;4934766;29;20142;-87
2023/06/18 11:47:29;;;;;;;9.05;5.40;;;;;;;;;;4926522;29;20115;-87
2023/06/18 11:49:55;;;;;;;8.00;5.10;;;;;;;;;;4926271;29;20134;-86
2023/06/18 11:52:23;;;;;;;8.73;4.95;;;;;;;;;;4939352;29;20048;-86
2023/06/18 11:54:50;;;;;;;7.22;5.20;;;;;;;;;;4934117;29;20099;-86
2023/06/18 11:57:18;;;;;;;6.60;5.28;;;;;;;;;;4920318;29;20055;-86
2023/06/18 11:59:45;;;;;;;7.82;5.20;;;;;;;;;;4922159;29;20051;-85
2023/06/18 12:02:15;;;;;;;7.53;5.60;;;;;;;;;;4934803;29;20040;-86
2023/06/18 12:04:41;;;;;;;6.45;5.03;;;;;;;;;;4929101;29;20063;-87
2023/06/18 12:07:07;;;;;;;8.30;5.32;;;;;;;;;;4931815;29;20031;-84
2023/06/18 12:09:37;;;;;;;7.32;5.38;;;;;;;;;;4945806;29;20044;-87
2023/06/18 12:12:29;;;;;;;6.55;5.13;;;;;;;;;;4932731;29;20044;-87
2023/06/18 12:15:21;;;;;;;11.35;5.07;;;;;;;;;;4922506;29;20036;-87
2023/06/18 12:17:50;;;;;;;6.57;5.30;;;;;;;;;;4932863;29;20051;-88
2023/06/18 12:20:18;;;;;;;6.00;5.05;;;;;;;;;;4926323;29;20075;-87
2023/06/18 12:22:44;;;;;;;7.13;5.13;;;;;;;;;;4930015;28;20036;-87
2023/06/18 12:25:11;;;;;;;11.10;5.47;;;;;;;;;;4931393;29;20043;-87
2023/06/18 12:27:37;;;;;;;9.25;5.63;;;;;;;;;;4932840;29;20043;-86
2023/06/18 12:30:05;;;;;;;6.63;5.28;;;;;;;;;;4930614;29;20036;-87
2023/06/18 12:32:37;;;;;;;6.45;5.20;;;;;;;;;;4936419;28;20028;-88
2023/06/18 12:35:14;;;;;;;7.03;5.15;;;;;;;;;;4931498;29;20422;-88
2023/06/18 12:37:43;;;;;;;7.57;5.45;;;;;;;;;;4928364;29;20036;-88
2023/06/18 12:40:19;;;;;;;6.05;5.00;;;;;;;;;;4925113;29;20569;-87
2023/06/18 12:42:48;;;;;;;8.02;4.88;;;;;;;;;;4922879;29;20066;-88
2023/06/18 12:45:14;;;;;;;8.40;5.50;;;;;;;;;;4919784;29;20194;-87
2023/06/18 12:47:42;;;;;;;7.70;5.03;;;;;;;;;;4920299;29;20047;-86
2023/06/18 12:50:09;;;;;;;10.25;5.25;;;;;;;;;;4922482;29;20058;-87
2023/06/18 12:52:43;;;;;;;8.05;4.90;;;;;;;;;;4925391;29;20040;-85
2023/06/18 12:55:13;;;;;;;8.57;5.30;;;;;;;;;;4924305;29;20036;-85
2023/06/18 12:57:48;;;;;;;9.15;5.35;;;;;;;;;;4930603;29;20070;-86
2023/06/18 13:00:22;;;;;;;7.30;5.22;;;;;;;;;;4934291;29;20050;-87
2023/06/18 13:02:50;;;;;;;7.43;5.10;;;;;;;;;;4932472;29;20167;-86
2023/06/18 13:05:18;;;;;;;6.78;5.22;;;;;;;;;;4920737;29;20397;-86
2023/06/18 13:07:53;;;;;;;7.18;5.00;;;;;;;;;;4924501;29;20036;-84
2023/06/18 13:10:22;;;;;;;6.82;5.15;;;;;;;;;;4926304;29;20035;-85
2023/06/18 13:12:48;;;;;;;9.90;5.10;;;;;;;;;;4924497;29;20486;-85
2023/06/18 13:15:19;;;;;;;7.80;4.78;;;;;;;;;;4942194;29;20032;-87
2023/06/18 13:17:45;;;;;;;10.38;5.20;;;;;;;;;;4939588;29;20119;-86
2023/06/18 13:20:11;;;;;;;5.57;4.70;;;;;;;;;;4924136;28;20059;-88
2023/06/18 13:22:37;;;;;;;7.57;4.97;;;;;;;;;;4939397;29;20039;-85
2023/06/18 13:25:04;;;;;;;11.43;5.25;;;;;;;;;;4929969;29;20040;-86
2023/06/18 13:27:30;;;;;;;7.90;4.72;;;;;;;;;;4931470;29;20086;-85
2023/06/18 13:29:59;;;;;;;6.32;5.15;;;;;;;;;;4933949;29;20382;-84
2023/06/18 13:32:30;;;;;;;9.98;5.60;;;;;;;;;;4957575;29;20512;-85
2023/06/18 13:34:59;;;;;;;7.43;5.20;;;;;;;;;;4937360;29;20138;-86
2023/06/18 13:37:27;;;;;;;8.00;5.32;;;;;;;;;;4938475;29;20040;-87
2023/06/18 13:39:54;;;;;;;7.30;5.20;;;;;;;;;;4931344;29;20051;-87
2023/06/18 13:42:21;;;;;;;7.13;5.18;;;;;;;;;;4929611;29;20043;-87
2023/06/18 13:44:50;;;;;;;9.68;5.57;;;;;;;;;;4933561;29;20059;-86
2023/06/18 13:47:16;;;;;;;10.27;5.57;;;;;;;;;;4942221;29;20063;-86
2023/06/18 13:49:43;;;;;;;6.97;5.65;;;;;;;;;;4940716;29;20047;-86
2023/06/18 13:52:16;;;;;;;7.82;5.50;;;;;;;;;;4951712;29;20036;-86
2023/06/18 13:54:42;;;;;;;6.35;5.30;;;;;;;;;;4927748;29;20090;-87
2023/06/18 13:57:07;;;;;;;7.07;5.80;;;;;;;;;;4936474;29;20044;-86
2023/06/18 13:59:33;;;;;;;9.25;5.57;;;;;;;;;;4928505;29;20043;-85
2023/06/18 14:01:59;;;;;;;6.63;5.32;;;;;;;;;;4932454;29;20031;-86
2023/06/18 14:04:25;;;;;;;7.03;5.15;;;;;;;;;;4934689;29;20032;-85
2023/06/18 14:06:52;;;;;;;7.68;5.57;;;;;;;;;;4938926;29;20066;-87
2023/06/18 14:09:17;;;;;;;9.63;5.60;;;;;;;;;;4943778;29;20048;-86
2023/06/18 14:11:43;;;;;;;7.95;5.68;;;;;;;;;;4932498;28;20046;-84
2023/06/18 14:14:09;;;;;;;8.18;5.70;;;;;;;;;;4929438;29;20042;-84
2023/06/18 14:16:35;;;;;;;9.30;5.80;;;;;;;;;;4930299;29;20050;-85
2023/06/18 14:19:00;;;;;;;7.47;5.50;;;;;;;;;;4928744;29;20059;-85
2023/06/18 14:21:26;;;;;;;9.70;5.57;;;;;;;;;;4945822;28;20036;-85
2023/06/18 14:23:52;;;;;;;7.75;5.50;;;;;;;;;;4926307;29;20062;-85
2023/06/18 14:26:17;;;;;;;7.45;5.55;;;;;;;;;;4938199;29;20687;-85
2023/06/18 14:28:43;;;;;;;8.70;6.00;;;;;;;;;;4930683;29;20058;-85
2023/06/18 14:31:10;;;;;;;7.30;5.40;;;;;;;;;;4937645;29;20050;-85
2023/06/18 14:33:36;;;;;;;7.15;5.90;;;;;;;;;;4924698;29;20063;-86
2023/06/18 14:36:01;;;;;;;8.55;5.68;;;;;;;;;;4924178;29;20079;-84
2023/06/18 14:38:27;;;;;;;7.45;5.78;;;;;;;;;;4932778;29;20048;-83
2023/06/18 14:40:52;;;;;;;8.05;5.80;;;;;;;;;;4927172;29;20036;-83
2023/06/18 14:43:18;;;;;;;8.77;5.60;;;;;;;;;;4903293;29;20062;-84